createdAt,value
2023-05-03T00:00:21.146Z,13.90
2023-05-03T00:02:49.274Z,13.77
2023-05-03T00:05:17.931Z,13.47
2023-05-03T00:07:47.348Z,13.97
2023-05-03T00:10:16.463Z,13.60
2023-05-03T00:12:45.943Z,14.67
2023-05-03T00:15:14.039Z,14.13
2023-05-03T00:17:42.250Z,14.27
2023-05-03T00:20:12.221Z,13.80
2023-05-03T00:22:40.311Z,13.80
2023-05-03T00:25:09.599Z,13.60
2023-05-03T00:27:38.475Z,13.27
2023-05-03T00:30:09.720Z,14.10
2023-05-03T00:32:38.045Z,13.30
2023-05-03T00:35:06.766Z,13.70
2023-05-03T00:37:34.877Z,13.83
2023-05-03T00:40:04.898Z,13.40
2023-05-03T00:42:36.326Z,13.57
2023-05-03T00:45:06.246Z,14.07
2023-05-03T00:47:37.401Z,13.17
2023-05-03T00:50:06.899Z,13.93
2023-05-03T00:52:36.052Z,13.13
2023-05-03T00:55:04.197Z,13.20
2023-05-03T00:57:32.477Z,14.13
2023-05-03T01:00:01.420Z,14.33
2023-05-03T01:02:29.972Z,14.30
2023-05-03T01:04:59.519Z,14.17
2023-05-03T01:07:36.681Z,13.40
2023-05-03T01:10:19.006Z,14.47
2023-05-03T01:12:56.326Z,14.20
2023-05-03T01:15:40.768Z,14.33
2023-05-03T01:18:13.411Z,13.93
2023-05-03T01:20:47.492Z,14.23
2023-05-03T01:23:23.176Z,13.77
2023-05-03T01:25:54.421Z,14.43
2023-05-03T01:28:22.602Z,14.30
2023-05-03T01:30:53.321Z,14.03
2023-05-03T01:33:29.293Z,14.50
2023-05-03T01:36:02.108Z,13.87
2023-05-03T01:38:34.259Z,14.40
2023-05-03T01:41:10.144Z,14.00
2023-05-03T01:43:39.226Z,14.13
2023-05-03T01:46:07.410Z,14.20
2023-05-03T01:48:35.746Z,13.83
2023-05-03T01:51:03.863Z,13.60
2023-05-03T01:53:31.915Z,14.10
2023-05-03T01:56:00.026Z,13.70
2023-05-03T01:58:29.496Z,14.20
2023-05-03T02:00:58.142Z,13.40
2023-05-03T02:03:26.228Z,14.50
2023-05-03T02:05:54.436Z,14.00
2023-05-03T02:08:22.608Z,14.00
2023-05-03T02:10:50.790Z,14.73
2023-05-03T02:13:18.856Z,14.60
2023-05-03T02:15:48.372Z,14.30
2023-05-03T02:18:18.535Z,14.80
2023-05-03T02:20:46.982Z,13.93
2023-05-03T02:23:15.488Z,14.07
2023-05-03T02:25:43.605Z,14.50
2023-05-03T02:28:11.704Z,14.00
2023-05-03T02:30:39.771Z,14.40
2023-05-03T02:33:09.453Z,14.20
2023-05-03T02:35:37.570Z,13.60
2023-05-03T02:38:05.615Z,13.47
2023-05-03T02:40:33.721Z,14.57
2023-05-03T02:43:02.541Z,14.13
2023-05-03T02:45:30.936Z,13.97
2023-05-03T02:47:59.553Z,14.03
2023-05-03T02:50:29.151Z,14.53
2023-05-03T02:52:57.221Z,14.40
2023-05-03T02:55:25.288Z,15.00
2023-05-03T02:57:53.380Z,14.83
2023-05-03T03:00:21.658Z,15.53
2023-05-03T03:02:50.236Z,14.93
2023-05-03T03:05:18.425Z,14.70
2023-05-03T03:07:48.692Z,15.57
2023-05-03T03:10:16.871Z,15.30
2023-05-03T03:12:45.110Z,15.60
2023-05-03T03:15:13.310Z,15.43
2023-05-03T03:17:41.409Z,15.77
2023-05-03T03:20:11.683Z,14.97
2023-05-03T03:22:40.111Z,15.23
2023-05-03T03:25:11.009Z,15.70
2023-05-03T03:27:39.843Z,16.00
2023-05-03T03:30:10.516Z,16.23
2023-05-03T03:32:38.627Z,15.30
2023-05-03T03:35:08.493Z,15.60
2023-05-03T03:37:36.591Z,15.40
2023-05-03T03:40:05.967Z,14.97
2023-05-03T03:42:35.556Z,16.53
2023-05-03T03:45:04.648Z,16.27
2023-05-03T03:47:32.780Z,15.53
2023-05-03T03:50:02.084Z,16.10
2023-05-03T03:52:30.414Z,15.10
2023-05-03T03:54:58.523Z,15.73
2023-05-03T03:57:30.125Z,15.23
2023-05-03T03:59:59.895Z,16.03
2023-05-03T04:02:28.896Z,16.07
2023-05-03T04:04:56.966Z,16.00
2023-05-03T04:07:25.096Z,16.13
2023-05-03T04:09:53.280Z,16.40
2023-05-03T04:12:21.479Z,15.20
2023-05-03T04:14:49.660Z,16.30
2023-05-03T04:17:19.094Z,16.70
2023-05-03T04:19:47.302Z,16.40
2023-05-03T04:22:15.614Z,16.50
2023-05-03T04:24:44.024Z,16.10
2023-05-03T04:27:14.771Z,17.50
2023-05-03T04:29:42.928Z,16.60
2023-05-03T04:32:11.257Z,17.13
2023-05-03T04:34:42.330Z,16.90
2023-05-03T04:37:10.899Z,16.90
2023-05-03T04:39:38.968Z,17.10
2023-05-03T04:42:07.518Z,17.90
2023-05-03T04:44:35.867Z,17.63
2023-05-03T04:47:04.101Z,17.40
2023-05-03T04:49:32.962Z,18.80
2023-05-03T04:52:02.715Z,18.00
2023-05-03T04:54:30.786Z,18.03
2023-05-03T04:56:58.869Z,18.30
2023-05-03T04:59:26.916Z,19.17
2023-05-03T05:01:55.110Z,18.37
2023-05-03T05:04:23.150Z,18.10
2023-05-03T05:06:52.821Z,18.27
2023-05-03T05:09:26.839Z,18.20
2023-05-03T05:11:57.054Z,19.33
2023-05-03T05:14:27.247Z,18.27
2023-05-03T05:16:55.489Z,18.30
2023-05-03T05:19:23.715Z,20.10
2023-05-03T05:21:52.722Z,18.27
2023-05-03T05:24:20.970Z,19.10
2023-05-03T05:26:50.630Z,19.40
2023-05-03T05:29:18.754Z,19.23
2023-05-03T05:31:46.933Z,18.90
2023-05-03T05:34:15.063Z,19.33
2023-05-03T05:36:43.347Z,18.87
2023-05-03T05:39:11.989Z,20.43
2023-05-03T05:41:40.500Z,21.00
2023-05-03T05:44:09.968Z,19.57
2023-05-03T05:46:38.079Z,20.07
2023-05-03T05:49:07.401Z,21.73
2023-05-03T05:51:35.496Z,21.40
2023-05-03T05:54:03.664Z,20.50
2023-05-03T05:56:31.863Z,21.40
2023-05-03T05:59:01.234Z,20.00
2023-05-03T06:01:32.161Z,20.57
2023-05-03T06:04:00.231Z,19.87
2023-05-03T06:06:29.674Z,20.43
2023-05-03T06:08:57.972Z,20.60
2023-05-03T06:11:26.969Z,20.43
2023-05-03T06:13:55.565Z,20.60
2023-05-03T06:16:23.705Z,20.43
2023-05-03T06:18:53.630Z,20.47
2023-05-03T06:21:22.330Z,21.57
2023-05-03T06:23:50.439Z,21.53
2023-05-03T06:26:18.478Z,21.17
2023-05-03T06:28:47.278Z,21.77
2023-05-03T06:31:15.426Z,21.00
2023-05-03T06:33:43.759Z,20.80
2023-05-03T06:36:13.204Z,21.17
2023-05-03T06:38:41.337Z,19.93
2023-05-03T06:41:09.417Z,21.30
2023-05-03T06:43:37.542Z,21.43
2023-05-03T06:46:06.234Z,21.93
2023-05-03T06:48:34.401Z,20.60
2023-05-03T06:51:02.509Z,20.60
2023-05-03T06:53:32.040Z,21.50
2023-05-03T06:56:00.782Z,21.60
2023-05-03T06:58:29.082Z,21.07
2023-05-03T07:00:57.201Z,20.40
2023-05-03T07:03:25.584Z,20.60
2023-05-03T07:05:53.743Z,21.40
2023-05-03T07:08:21.911Z,21.70
2023-05-03T07:10:51.567Z,22.00
2023-05-03T07:13:19.652Z,23.50
2023-05-03T07:15:48.024Z,21.70
2023-05-03T07:18:16.908Z,21.50
2023-05-03T07:20:46.719Z,22.20
2023-05-03T07:23:15.535Z,21.97
2023-05-03T07:25:44.035Z,21.50
2023-05-03T07:28:13.544Z,22.27
2023-05-03T07:30:41.639Z,21.47
2023-05-03T07:33:09.949Z,21.50
2023-05-03T07:35:39.206Z,22.30
2023-05-03T07:38:07.826Z,22.00
2023-05-03T07:40:37.306Z,23.60
2023-05-03T07:43:05.738Z,22.23
2023-05-03T07:45:35.633Z,22.10
2023-05-03T07:48:04.474Z,22.23
2023-05-03T07:50:32.818Z,23.60
2023-05-03T07:53:01.327Z,23.03
2023-05-03T07:55:31.502Z,21.37
2023-05-03T07:58:00.197Z,22.67
2023-05-03T08:00:28.582Z,22.70
2023-05-03T08:02:58.374Z,22.40
2023-05-03T08:05:29.566Z,22.17
2023-05-03T08:07:57.786Z,22.50
2023-05-03T08:10:26.486Z,23.60
2023-05-03T08:12:54.752Z,22.77
2023-05-03T08:15:22.927Z,22.40
2023-05-03T08:17:51.283Z,21.40
2023-05-03T08:20:21.843Z,22.13
2023-05-03T08:22:50.773Z,22.83
2023-05-03T08:25:20.799Z,22.77
2023-05-03T08:27:49.355Z,23.27
2023-05-03T08:30:17.876Z,24.00
2023-05-03T08:32:46.395Z,22.47
2023-05-03T08:35:15.362Z,22.10
2023-05-03T08:37:45.516Z,22.10
2023-05-03T08:40:15.542Z,22.37
2023-05-03T08:42:45.758Z,22.27
2023-05-03T08:45:16.014Z,22.00
2023-05-03T08:47:45.471Z,21.60
2023-05-03T08:50:14.904Z,22.07
2023-05-03T08:52:46.492Z,21.97
2023-05-03T08:55:15.382Z,21.90
2023-05-03T08:57:43.857Z,21.90
2023-05-03T09:00:13.304Z,21.60
2023-05-03T09:02:42.964Z,22.50
2023-05-03T09:05:35.263Z,20.80
2023-05-03T09:08:07.441Z,20.97
2023-05-03T09:10:39.259Z,21.00
2023-05-03T09:13:08.103Z,21.77
2023-05-03T09:15:37.080Z,20.03
2023-05-03T09:18:12.881Z,20.30
2023-05-03T09:20:42.924Z,20.80
2023-05-03T09:23:13.018Z,20.93
2023-05-03T09:25:46.366Z,20.23
2023-05-03T09:28:15.875Z,20.60
2023-05-03T09:30:45.398Z,20.13
2023-05-03T09:33:20.630Z,21.10
2023-05-03T09:36:07.397Z,20.67
2023-05-03T09:38:38.174Z,20.53
2023-05-03T09:41:07.352Z,21.47
2023-05-03T09:43:36.611Z,21.70
2023-05-03T09:46:14.736Z,19.70
2023-05-03T09:48:43.934Z,21.80
2023-05-03T09:51:14.426Z,20.23
2023-05-03T09:53:44.898Z,20.67
2023-05-03T09:56:13.835Z,21.03
2023-05-03T09:58:43.942Z,20.23
2023-05-03T10:01:13.983Z,20.80
2023-05-03T10:03:45.153Z,20.10
2023-05-03T10:06:23.462Z,20.47
2023-05-03T10:08:56.805Z,20.77
2023-05-03T10:11:27.260Z,20.97
2023-05-03T10:13:56.016Z,20.70
2023-05-03T10:16:28.945Z,20.43
2023-05-03T10:19:05.656Z,20.20
2023-05-03T10:21:43.390Z,20.77
2023-05-03T10:24:14.168Z,19.70
2023-05-03T10:26:43.052Z,19.10
2023-05-03T10:29:49.444Z,19.30
2023-05-03T10:32:40.788Z,19.60
2023-05-03T10:35:11.398Z,18.83
2023-05-03T10:37:42.493Z,19.03
2023-05-03T10:40:15.134Z,20.03
2023-05-03T10:42:46.063Z,20.47
2023-05-03T10:45:28.282Z,20.07
2023-05-03T10:48:24.249Z,18.90
2023-05-03T10:50:53.000Z,19.07
2023-05-03T10:53:38.550Z,19.17
2023-05-03T10:56:09.757Z,19.20
2023-05-03T10:58:39.031Z,19.70
2023-05-03T11:01:08.265Z,18.27
2023-05-03T11:03:45.024Z,19.50
2023-05-03T11:06:32.614Z,18.33
2023-05-03T11:09:01.188Z,19.37
2023-05-03T11:11:31.267Z,19.50
2023-05-03T11:13:59.841Z,19.17
2023-05-03T11:16:28.197Z,20.30
2023-05-03T11:18:56.572Z,18.80
2023-05-03T11:21:24.986Z,18.00
2023-05-03T11:23:53.350Z,19.03
2023-05-03T11:26:26.311Z,18.87
2023-05-03T11:28:56.398Z,18.50
2023-05-03T11:31:24.658Z,18.60
2023-05-03T11:33:52.980Z,18.33
2023-05-03T11:36:21.664Z,19.50
2023-05-03T11:38:49.802Z,18.63
2023-05-03T11:41:19.053Z,18.23
2023-05-03T11:43:55.017Z,17.87
2023-05-03T11:46:33.659Z,18.43
2023-05-03T11:49:03.312Z,18.60
2023-05-03T11:51:31.829Z,18.17
2023-05-03T11:54:12.994Z,18.00
2023-05-03T11:56:50.350Z,18.10
2023-05-03T11:59:20.173Z,18.50
2023-05-03T12:01:51.921Z,18.40
2023-05-03T12:04:20.716Z,20.13
2023-05-03T12:06:54.286Z,18.47
2023-05-03T12:09:27.308Z,18.33
2023-05-03T12:11:56.156Z,17.50
2023-05-03T12:14:26.592Z,18.50
2023-05-03T12:17:00.165Z,17.77
2023-05-03T12:19:32.421Z,19.57
2023-05-03T12:24:34.099Z,17.77
2023-05-03T12:27:03.488Z,17.27
2023-05-03T12:29:35.122Z,17.87
2023-05-03T12:32:06.051Z,17.93
2023-05-03T12:34:36.727Z,17.93
2023-05-03T12:37:06.704Z,17.23
2023-05-03T12:39:39.220Z,16.87
2023-05-03T12:42:09.431Z,15.70
2023-05-03T12:44:42.875Z,16.37
2023-05-03T12:47:16.957Z,17.20
2023-05-03T12:50:00.109Z,17.40
2023-05-03T12:55:03.192Z,17.07
2023-05-03T12:57:35.783Z,16.60
2023-05-03T13:00:13.628Z,17.27
2023-05-03T13:07:55.531Z,16.13
2023-05-03T13:10:24.862Z,16.63
2023-05-03T13:12:54.029Z,16.10
2023-05-03T13:15:25.220Z,15.23
2023-05-03T13:17:54.796Z,16.23
2023-05-03T13:20:23.095Z,16.00
2023-05-03T13:22:51.340Z,14.73
2023-05-03T13:25:19.468Z,15.00
2023-05-03T13:27:50.294Z,15.30
2023-05-03T13:30:18.472Z,14.53
2023-05-03T13:32:46.625Z,14.40
2023-05-03T13:35:16.104Z,15.53
2023-05-03T13:37:44.233Z,15.00
2023-05-03T13:40:14.771Z,14.67
2023-05-03T13:42:42.920Z,14.60
2023-05-03T13:45:12.401Z,15.27
2023-05-03T13:48:04.724Z,14.33
2023-05-03T13:50:31.968Z,13.77
2023-05-03T13:53:00.142Z,13.60
2023-05-03T13:55:28.686Z,13.80
2023-05-03T13:57:56.779Z,13.67
2023-05-03T14:00:25.093Z,15.27
2023-05-03T14:02:53.438Z,14.70
2023-05-03T14:05:21.701Z,14.10
2023-05-03T14:07:51.415Z,13.83
2023-05-03T14:10:19.768Z,15.07
2023-05-03T14:12:48.395Z,15.27
2023-05-03T14:15:16.954Z,14.60
2023-05-03T14:17:48.661Z,14.70
2023-05-03T14:20:17.471Z,13.57
2023-05-03T14:22:50.892Z,12.93
2023-05-03T14:25:19.223Z,13.50
2023-05-03T14:27:47.457Z,13.80
2023-05-03T14:30:16.428Z,14.03
2023-05-03T14:32:44.651Z,14.30
2023-05-03T14:35:13.112Z,14.60
2023-05-03T14:37:41.285Z,14.30
2023-05-03T14:40:11.915Z,14.00
2023-05-03T14:42:40.257Z,13.80
2023-05-03T14:45:11.772Z,13.43
2023-05-03T14:47:40.837Z,13.50
2023-05-03T14:50:10.289Z,13.07
2023-05-03T14:52:38.838Z,13.73
2023-05-03T14:55:08.466Z,13.27
2023-05-03T14:57:38.255Z,13.57
2023-05-03T15:00:14.135Z,14.07
2023-05-03T15:02:45.901Z,13.97
2023-05-03T15:05:14.430Z,13.20
2023-05-03T15:07:44.160Z,12.63
2023-05-03T15:10:13.030Z,12.63
2023-05-03T15:12:43.104Z,12.80
2023-05-03T15:15:15.746Z,12.50
2023-05-03T15:17:44.076Z,13.07
2023-05-03T15:20:15.474Z,12.43
2023-05-03T15:22:43.679Z,12.57
2023-05-03T15:25:12.359Z,12.50
2023-05-03T15:27:42.073Z,16.70
2023-05-03T15:30:12.495Z,19.47
2023-05-03T15:32:40.938Z,14.67
2023-05-03T15:35:09.761Z,15.67
2023-05-03T15:37:38.850Z,12.30
2023-05-03T15:40:10.628Z,12.53
2023-05-03T15:42:39.239Z,12.57
2023-05-03T15:45:11.137Z,12.10
2023-05-03T15:47:40.215Z,12.73
2023-05-03T15:50:09.769Z,30.73
2023-05-03T15:52:38.126Z,13.27
2023-05-03T15:55:07.390Z,12.10
2023-05-03T15:57:35.710Z,11.03
2023-05-03T16:00:06.690Z,11.70
2023-05-03T16:02:37.428Z,12.03
2023-05-03T16:05:06.176Z,10.97
2023-05-03T16:07:34.359Z,12.00
2023-05-03T16:10:02.687Z,11.17
2023-05-03T16:12:31.120Z,14.47
2023-05-03T16:15:00.251Z,10.37
2023-05-03T16:17:28.723Z,10.63
2023-05-03T16:19:59.553Z,10.80
2023-05-03T16:22:28.680Z,10.03
2023-05-03T16:24:56.949Z,9.53
2023-05-03T16:27:25.089Z,10.00
2023-05-03T16:29:54.335Z,9.90
2023-05-03T16:32:22.749Z,10.20
2023-05-03T16:34:50.982Z,9.83
2023-05-03T16:37:22.349Z,9.80
2023-05-03T16:39:50.614Z,9.77
2023-05-03T16:42:19.102Z,9.83
2023-05-03T16:44:47.784Z,9.80
2023-05-03T16:47:15.909Z,9.60
2023-05-03T16:49:44.319Z,9.37
2023-05-03T16:52:12.623Z,9.30
2023-05-03T16:54:43.662Z,9.20
2023-05-03T16:57:12.131Z,9.40
2023-05-03T16:59:40.198Z,9.00
2023-05-03T17:02:08.403Z,9.20
2023-05-03T17:04:36.536Z,9.33
2023-05-03T17:07:04.672Z,9.23
2023-05-03T17:09:32.877Z,8.80
2023-05-03T17:12:03.611Z,9.53
2023-05-03T17:14:31.933Z,9.53
2023-05-03T17:17:00.119Z,9.23
2023-05-03T17:19:28.584Z,8.70
2023-05-03T17:21:56.708Z,9.60
2023-05-03T17:24:24.814Z,9.77
2023-05-03T17:26:55.141Z,9.50
2023-05-03T17:29:24.651Z,9.13
2023-05-03T17:31:52.896Z,10.00
2023-05-03T17:34:22.414Z,10.40
2023-05-03T17:36:50.649Z,9.80
2023-05-03T17:39:18.772Z,9.70
2023-05-03T17:41:46.870Z,9.00
2023-05-03T17:44:15.337Z,9.67
2023-05-03T17:46:45.053Z,9.13
2023-05-03T17:49:13.136Z,9.10
2023-05-03T17:51:41.203Z,9.33
2023-05-03T17:54:09.448Z,9.20
2023-05-03T17:56:37.610Z,9.83
2023-05-03T17:59:05.825Z,9.33
2023-05-03T18:01:33.996Z,9.60
2023-05-03T18:04:03.669Z,9.70
2023-05-03T18:06:32.581Z,8.80
2023-05-03T18:09:00.737Z,9.33
2023-05-03T18:11:28.816Z,9.90
2023-05-03T18:13:57.112Z,9.40
2023-05-03T18:16:25.337Z,9.70
2023-05-03T18:18:54.557Z,9.53
2023-05-03T18:21:24.334Z,9.50
2023-05-03T18:23:54.418Z,9.52
2023-05-03T18:26:24.476Z,9.80
2023-05-03T18:28:53.929Z,9.50
2023-05-03T18:31:22.537Z,9.40
2023-05-03T18:33:50.779Z,9.53
2023-05-03T18:36:19.190Z,9.50
2023-05-03T18:38:53.137Z,9.93
2023-05-03T18:41:21.630Z,9.10
2023-05-03T18:43:52.032Z,9.80
2023-05-03T18:46:21.021Z,9.70
2023-05-03T18:48:49.799Z,9.90
2023-05-03T18:51:19.225Z,10.07
2023-05-03T18:53:49.923Z,9.67
2023-05-03T18:56:18.091Z,9.50
2023-05-03T18:58:48.302Z,9.93
2023-05-03T19:01:16.864Z,9.80
2023-05-03T19:03:45.057Z,11.10
2023-05-03T19:06:13.336Z,10.00
2023-05-03T19:08:43.635Z,9.50
2023-05-03T19:11:14.481Z,9.70
2023-05-03T19:13:44.807Z,9.67
2023-05-03T19:16:13.433Z,10.30
2023-05-03T19:18:42.211Z,10.03
2023-05-03T19:21:12.156Z,10.27
2023-05-03T19:23:40.814Z,9.37
2023-05-03T19:26:08.957Z,9.90
2023-05-03T19:28:38.661Z,10.17
2023-05-03T19:31:07.546Z,9.83
2023-05-03T19:33:36.767Z,10.40
2023-05-03T19:36:07.242Z,11.63
2023-05-03T19:38:36.374Z,11.50
2023-05-03T19:41:08.257Z,10.60
2023-05-03T19:43:38.064Z,11.13
2023-05-03T19:46:06.445Z,11.00
2023-05-03T19:48:34.935Z,10.43
2023-05-03T19:51:05.325Z,10.30
2023-05-03T19:53:33.760Z,11.07
2023-05-03T19:56:03.998Z,10.80
2023-05-03T19:58:33.064Z,11.40
2023-05-03T20:01:04.341Z,10.53
2023-05-03T20:03:34.164Z,11.13
2023-05-03T20:06:02.674Z,11.33
2023-05-03T20:08:31.615Z,10.57
2023-05-03T20:11:00.171Z,10.80
2023-05-03T20:13:30.262Z,11.00
2023-05-03T20:15:58.513Z,10.87
2023-05-03T20:18:28.052Z,10.67
2023-05-03T20:20:56.587Z,10.57
2023-05-03T20:23:25.668Z,11.60
2023-05-03T20:25:54.262Z,11.50
2023-05-03T20:28:23.142Z,11.10
2023-05-03T20:30:51.534Z,10.97
2023-05-03T20:33:19.668Z,10.40
2023-05-03T20:35:49.414Z,10.43
2023-05-03T20:38:18.421Z,10.97
2023-05-03T20:40:46.576Z,11.07
2023-05-03T20:43:14.840Z,11.03
2023-05-03T20:45:42.998Z,11.10
2023-05-03T20:48:11.176Z,11.03
2023-05-03T20:50:39.532Z,11.30
2023-05-03T20:53:08.930Z,11.07
2023-05-03T20:55:38.551Z,11.20
2023-05-03T20:58:06.669Z,11.03
2023-05-03T21:00:34.810Z,10.80
2023-05-03T21:03:03.639Z,11.03
2023-05-03T21:05:31.933Z,11.07
2023-05-03T21:08:00.483Z,11.47
2023-05-03T21:10:30.050Z,10.73
2023-05-03T21:12:58.269Z,11.60
2023-05-03T21:15:26.517Z,11.10
2023-05-03T21:17:54.774Z,10.90
2023-05-03T21:20:23.488Z,10.80
2023-05-03T21:22:51.778Z,10.47
2023-05-03T21:25:20.036Z,10.70
2023-05-03T21:27:49.512Z,11.10
2023-05-03T21:30:19.295Z,11.00
2023-05-03T21:32:49.719Z,11.70
2023-05-03T21:35:18.130Z,11.23
2023-05-03T21:37:47.540Z,11.00
2023-05-03T21:40:16.595Z,11.07
2023-05-03T21:42:45.271Z,10.80
2023-05-03T21:45:16.646Z,11.13
2023-05-03T21:47:44.831Z,11.50
2023-05-03T21:50:13.939Z,11.80
2023-05-03T21:52:42.122Z,12.23
2023-05-03T21:55:10.692Z,11.97
2023-05-03T21:57:38.847Z,11.37
2023-05-03T22:00:14.080Z,11.23
2023-05-03T22:02:43.670Z,11.40
2023-05-03T22:05:13.200Z,12.10
2023-05-03T22:07:41.433Z,11.20
2023-05-03T22:10:10.505Z,11.40
2023-05-03T22:12:38.715Z,11.60
2023-05-03T22:15:08.154Z,11.30
2023-05-03T22:17:36.589Z,11.20
2023-05-03T22:20:07.664Z,11.37
2023-05-03T22:22:35.945Z,10.93
2023-05-03T22:25:04.303Z,11.00
2023-05-03T22:27:32.391Z,11.43
2023-05-03T22:30:00.851Z,10.70
2023-05-03T22:32:29.120Z,11.80
2023-05-03T22:34:57.183Z,11.20
2023-05-03T22:37:26.957Z,11.03
2023-05-03T22:39:55.060Z,11.03
2023-05-03T22:42:23.532Z,11.37
2023-05-03T22:44:51.659Z,11.27
2023-05-03T22:47:20.318Z,12.43
2023-05-03T22:49:48.603Z,11.27
2023-05-03T22:52:16.957Z,11.60
2023-05-03T22:54:46.736Z,10.73
2023-05-03T22:57:14.852Z,11.60
2023-05-03T22:59:46.009Z,10.53
2023-05-03T23:02:14.109Z,10.87
2023-05-03T23:04:42.152Z,10.77
2023-05-03T23:07:10.212Z,11.10
2023-05-03T23:09:38.243Z,10.83
2023-05-03T23:12:08.017Z,11.13
2023-05-03T23:14:36.479Z,11.50
2023-05-03T23:17:04.559Z,11.03
2023-05-03T23:19:32.677Z,11.80
2023-05-03T23:22:00.695Z,11.70
2023-05-03T23:24:28.865Z,12.07
2023-05-03T23:26:57.035Z,11.90
2023-05-03T23:29:26.908Z,11.23
2023-05-03T23:31:55.404Z,10.60
2023-05-03T23:34:24.215Z,11.53
2023-05-03T23:36:52.283Z,11.00
2023-05-03T23:39:20.386Z,11.70
2023-05-03T23:41:48.397Z,11.10
2023-05-03T23:44:16.450Z,11.60
2023-05-03T23:46:45.841Z,11.07
2023-05-03T23:49:13.913Z,10.87
2023-05-03T23:51:41.931Z,11.03
2023-05-03T23:54:09.974Z,11.80
2023-05-03T23:56:38.075Z,11.03
2023-05-03T23:59:06.392Z,11.70
